sensor_id;sensor_type;location;lat;lon;timestamp;temperature;humidity
3816;DHT22;1923;48.154;11.536;2023-01-19T00:01:43;1.30;99.90
3816;DHT22;1923;48.154;11.536;2023-01-19T00:04:11;1.30;99.90
3816;DHT22;1923;48.154;11.536;2023-01-19T04:26:02;-2.00;99.90
3816;DHT22;1923;48.154;11.536;2023-01-19T04:29:11;-2.00;99.90
3816;DHT22;1923;48.154;11.536;2023-01-19T04:31:40;-1.40;99.90
3816;DHT22;1923;48.154;11.536;2023-01-19T04:34:08;-1.00;99.90
3816;DHT22;1923;48.154;11.536;2023-01-19T04:36:36;-0.70;99.90
3816;DHT22;1923;48.154;11.536;2023-01-19T04:39:04;-0.60;99.90
3816;DHT22;1923;48.154;11.536;2023-01-19T04:41:35;-0.40;99.90
3816;DHT22;1923;48.154;11.536;2023-01-19T04:44:04;-0.30;99.90
3816;DHT22;1923;48.154;11.536;2023-01-19T04:46:32;-0.20;99.90
3816;DHT22;1923;48.154;11.536;2023-01-19T04:49:00;-0.20;99.90
3816;DHT22;1923;48.154;11.536;2023-01-19T04:51:28;-0.10;99.90
3816;DHT22;1923;48.154;11.536;2023-01-19T04:53:56;-0.20;99.90
3816;DHT22;1923;48.154;11.536;2023-01-19T04:56:24;-0.10;99.90
3816;DHT22;1923;48.154;11.536;2023-01-19T04:58:54;-0.10;99.90
3816;DHT22;1923;48.154;11.536;2023-01-19T05:01:22;-0.10;99.90
3816;DHT22;1923;48.154;11.536;2023-01-19T05:03:50;0.00;99.90
3816;DHT22;1923;48.154;11.536;2023-01-19T05:06:18;-0.10;99.90
3816;DHT22;1923;48.154;11.536;2023-01-19T05:08:46;-0.20;99.90
3816;DHT22;1923;48.154;11.536;2023-01-19T05:11:15;-0.20;99.90
3816;DHT22;1923;48.154;11.536;2023-01-19T05:13:42;-0.10;99.90
3816;DHT22;1923;48.154;11.536;2023-01-19T05:16:12;-0.10;99.90
3816;DHT22;1923;48.154;11.536;2023-01-19T05:18:40;-0.20;99.90
3816;DHT22;1923;48.154;11.536;2023-01-19T05:21:08;0.00;99.90
3816;DHT22;1923;48.154;11.536;2023-01-19T05:23:36;0.00;99.90
3816;DHT22;1923;48.154;11.536;2023-01-19T05:26:04;0.10;99.90
3816;DHT22;1923;48.154;11.536;2023-01-19T05:28:35;0.10;99.90
3816;DHT22;1923;48.154;11.536;2023-01-19T05:31:03;0.10;99.90
3816;DHT22;1923;48.154;11.536;2023-01-19T05:33:33;0.00;99.90
3816;DHT22;1923;48.154;11.536;2023-01-19T05:36:01;-0.10;99.90
3816;DHT22;1923;48.154;11.536;2023-01-19T05:38:29;0.00;99.90
3816;DHT22;1923;48.154;11.536;2023-01-19T05:41:02;-0.10;99.90
3816;DHT22;1923;48.154;11.536;2023-01-19T05:43:31;-0.10;99.90
3816;DHT22;1923;48.154;11.536;2023-01-19T05:45:59;0.00;99.90
3816;DHT22;1923;48.154;11.536;2023-01-19T05:48:27;-0.10;99.90
3816;DHT22;1923;48.154;11.536;2023-01-19T05:50:59;-0.20;99.90
3816;DHT22;1923;48.154;11.536;2023-01-19T05:53:28;-0.30;99.90
3816;DHT22;1923;48.154;11.536;2023-01-19T05:55:59;-0.30;99.90
3816;DHT22;1923;48.154;11.536;2023-01-19T05:58:27;-0.30;99.90
3816;DHT22;1923;48.154;11.536;2023-01-19T06:00:55;-0.30;99.90
3816;DHT22;1923;48.154;11.536;2023-01-19T06:03:23;-0.30;99.90
3816;DHT22;1923;48.154;11.536;2023-01-19T06:05:51;-0.20;99.90
3816;DHT22;1923;48.154;11.536;2023-01-19T06:08:21;-0.20;99.90
3816;DHT22;1923;48.154;11.536;2023-01-19T06:10:49;-0.20;99.90
3816;DHT22;1923;48.154;11.536;2023-01-19T06:13:17;-0.20;99.90
3816;DHT22;1923;48.154;11.536;2023-01-19T06:15:45;-0.10;99.90
3816;DHT22;1923;48.154;11.536;2023-01-19T06:18:14;-0.20;99.90
3816;DHT22;1923;48.154;11.536;2023-01-19T06:20:42;-0.20;99.90
3816;DHT22;1923;48.154;11.536;2023-01-19T06:23:10;-0.10;99.90
3816;DHT22;1923;48.154;11.536;2023-01-19T06:25:39;-0.20;99.90
3816;DHT22;1923;48.154;11.536;2023-01-19T06:28:07;-0.30;99.90
3816;DHT22;1923;48.154;11.536;2023-01-19T06:30:35;-0.30;99.90
3816;DHT22;1923;48.154;11.536;2023-01-19T06:33:03;-0.40;99.90
3816;DHT22;1923;48.154;11.536;2023-01-19T06:35:32;-0.30;99.90
3816;DHT22;1923;48.154;11.536;2023-01-19T06:38:01;-0.30;99.90
3816;DHT22;1923;48.154;11.536;2023-01-19T06:40:29;-0.30;99.90
3816;DHT22;1923;48.154;11.536;2023-01-19T06:42:59;-0.30;99.90
3816;DHT22;1923;48.154;11.536;2023-01-19T06:45:27;-0.30;99.90
3816;DHT22;1923;48.154;11.536;2023-01-19T06:47:55;-0.20;99.90
3816;DHT22;1923;48.154;11.536;2023-01-19T06:50:23;-0.10;99.90
3816;DHT22;1923;48.154;11.536;2023-01-19T06:52:52;-0.10;99.90
3816;DHT22;1923;48.154;11.536;2023-01-19T06:55:20;-0.10;99.90
3816;DHT22;1923;48.154;11.536;2023-01-19T06:57:55;-0.10;99.90
3816;DHT22;1923;48.154;11.536;2023-01-19T07:00:25;0.00;99.90
3816;DHT22;1923;48.154;11.536;2023-01-19T07:02:54;0.10;99.90
3816;DHT22;1923;48.154;11.536;2023-01-19T07:05:22;0.30;99.90
3816;DHT22;1923;48.154;11.536;2023-01-19T07:07:51;0.20;99.90
3816;DHT22;1923;48.154;11.536;2023-01-19T07:10:19;0.30;99.90
3816;DHT22;1923;48.154;11.536;2023-01-19T07:12:48;0.30;99.90
3816;DHT22;1923;48.154;11.536;2023-01-19T07:15:17;0.30;99.90
3816;DHT22;1923;48.154;11.536;2023-01-19T07:17:48;0.30;99.90
3816;DHT22;1923;48.154;11.536;2023-01-19T07:20:17;0.20;99.90
3816;DHT22;1923;48.154;11.536;2023-01-19T07:22:45;0.20;99.90
3816;DHT22;1923;48.154;11.536;2023-01-19T07:25:13;0.20;99.90
3816;DHT22;1923;48.154;11.536;2023-01-19T07:27:41;0.20;99.90
3816;DHT22;1923;48.154;11.536;2023-01-19T07:30:11;0.20;99.90
3816;DHT22;1923;48.154;11.536;2023-01-19T07:32:41;0.20;99.90
3816;DHT22;1923;48.154;11.536;2023-01-19T07:35:11;0.30;99.90
3816;DHT22;1923;48.154;11.536;2023-01-19T07:37:39;0.40;99.90
3816;DHT22;1923;48.154;11.536;2023-01-19T07:40:08;0.30;99.90
3816;DHT22;1923;48.154;11.536;2023-01-19T07:42:36;0.30;99.90
3816;DHT22;1923;48.154;11.536;2023-01-19T07:45:05;0.30;99.90
3816;DHT22;1923;48.154;11.536;2023-01-19T07:47:33;0.20;99.90
3816;DHT22;1923;48.154;11.536;2023-01-19T07:50:01;0.20;99.90
3816;DHT22;1923;48.154;11.536;2023-01-19T07:52:30;0.20;99.90
3816;DHT22;1923;48.154;11.536;2023-01-19T07:54:58;0.30;99.90
3816;DHT22;1923;48.154;11.536;2023-01-19T07:57:26;0.30;99.90
3816;DHT22;1923;48.154;11.536;2023-01-19T07:59:55;0.30;99.90
3816;DHT22;1923;48.154;11.536;2023-01-19T08:02:23;0.30;99.90
3816;DHT22;1923;48.154;11.536;2023-01-19T08:04:52;0.30;99.90
3816;DHT22;1923;48.154;11.536;2023-01-19T08:07:20;0.30;99.90
3816;DHT22;1923;48.154;11.536;2023-01-19T08:09:50;0.40;99.90
3816;DHT22;1923;48.154;11.536;2023-01-19T08:12:18;0.50;99.90
3816;DHT22;1923;48.154;11.536;2023-01-19T08:14:46;0.40;99.90
3816;DHT22;1923;48.154;11.536;2023-01-19T08:17:14;0.50;99.90
3816;DHT22;1923;48.154;11.536;2023-01-19T08:19:42;0.50;99.90
3816;DHT22;1923;48.154;11.536;2023-01-19T08:22:10;0.70;99.90
3816;DHT22;1923;48.154;11.536;2023-01-19T08:24:38;0.70;99.90
3816;DHT22;1923;48.154;11.536;2023-01-19T08:27:08;0.70;99.90
3816;DHT22;1923;48.154;11.536;2023-01-19T08:29:38;0.80;99.90
3816;DHT22;1923;48.154;11.536;2023-01-19T08:32:06;0.90;99.90
3816;DHT22;1923;48.154;11.536;2023-01-19T08:34:34;0.90;99.90
3816;DHT22;1923;48.154;11.536;2023-01-19T08:37:02;1.10;99.90
3816;DHT22;1923;48.154;11.536;2023-01-19T08:39:31;1.10;99.90
3816;DHT22;1923;48.154;11.536;2023-01-19T08:41:58;1.30;99.90
3816;DHT22;1923;48.154;11.536;2023-01-19T08:44:28;1.50;99.90
3816;DHT22;1923;48.154;11.536;2023-01-19T08:46:56;1.40;99.90
3816;DHT22;1923;48.154;11.536;2023-01-19T08:49:27;1.60;99.90
3816;DHT22;1923;48.154;11.536;2023-01-19T08:51:56;1.60;99.90
3816;DHT22;1923;48.154;11.536;2023-01-19T08:54:24;1.80;99.90
3816;DHT22;1923;48.154;11.536;2023-01-19T08:56:52;2.10;99.90
3816;DHT22;1923;48.154;11.536;2023-01-19T08:59:20;2.30;99.90
3816;DHT22;1923;48.154;11.536;2023-01-19T09:01:49;2.40;99.90
3816;DHT22;1923;48.154;11.536;2023-01-19T09:04:18;2.50;99.90
3816;DHT22;1923;48.154;11.536;2023-01-19T09:06:45;2.70;99.90
3816;DHT22;1923;48.154;11.536;2023-01-19T09:09:14;2.60;99.90
3816;DHT22;1923;48.154;11.536;2023-01-19T09:11:42;2.60;99.90
3816;DHT22;1923;48.154;11.536;2023-01-19T09:14:10;2.70;99.90
3816;DHT22;1923;48.154;11.536;2023-01-19T09:16:38;2.70;99.90
3816;DHT22;1923;48.154;11.536;2023-01-19T09:19:08;2.80;99.90
3816;DHT22;1923;48.154;11.536;2023-01-19T09:21:36;2.90;99.90
3816;DHT22;1923;48.154;11.536;2023-01-19T09:24:04;3.10;99.90
3816;DHT22;1923;48.154;11.536;2023-01-19T09:26:32;3.30;99.90
3816;DHT22;1923;48.154;11.536;2023-01-19T09:29:02;3.40;99.90
3816;DHT22;1923;48.154;11.536;2023-01-19T09:31:30;3.60;99.90
3816;DHT22;1923;48.154;11.536;2023-01-19T09:33:58;3.60;99.90
3816;DHT22;1923;48.154;11.536;2023-01-19T09:36:27;3.80;99.90
3816;DHT22;1923;48.154;11.536;2023-01-19T09:38:55;3.90;99.90
3816;DHT22;1923;48.154;11.536;2023-01-19T09:41:23;4.20;99.90
3816;DHT22;1923;48.154;11.536;2023-01-19T09:43:56;4.20;99.90
3816;DHT22;1923;48.154;11.536;2023-01-19T09:46:29;4.30;99.90
3816;DHT22;1923;48.154;11.536;2023-01-19T09:49:02;4.20;99.90
3816;DHT22;1923;48.154;11.536;2023-01-19T09:51:36;4.20;99.90
3816;DHT22;1923;48.154;11.536;2023-01-19T09:54:11;4.20;99.90
3816;DHT22;1923;48.154;11.536;2023-01-19T09:56:40;4.10;99.90
3816;DHT22;1923;48.154;11.536;2023-01-19T09:59:20;4.10;99.90
3816;DHT22;1923;48.154;11.536;2023-01-19T10:02:14;4.30;99.90
3816;DHT22;1923;48.154;11.536;2023-01-19T10:04:50;4.60;99.90
3816;DHT22;1923;48.154;11.536;2023-01-19T10:07:33;5.00;99.90
3816;DHT22;1923;48.154;11.536;2023-01-19T10:10:12;5.40;99.90
3816;DHT22;1923;48.154;11.536;2023-01-19T10:12:51;5.80;99.90
3816;DHT22;1923;48.154;11.536;2023-01-19T10:15:30;6.30;99.90
3816;DHT22;1923;48.154;11.536;2023-01-19T10:18:12;7.00;99.90
3816;DHT22;1923;48.154;11.536;2023-01-19T10:20:45;7.30;99.90
3816;DHT22;1923;48.154;11.536;2023-01-19T10:23:29;8.00;99.90
3816;DHT22;1923;48.154;11.536;2023-01-19T10:26:02;8.50;99.90
3816;DHT22;1923;48.154;11.536;2023-01-19T10:28:32;8.70;99.90
3816;DHT22;1923;48.154;11.536;2023-01-19T10:31:02;9.20;99.60
3816;DHT22;1923;48.154;11.536;2023-01-19T10:33:32;9.40;98.80
3816;DHT22;1923;48.154;11.536;2023-01-19T10:36:03;9.90;97.90
3816;DHT22;1923;48.154;11.536;2023-01-19T10:38:34;10.50;97.10
3816;DHT22;1923;48.154;11.536;2023-01-19T10:41:05;10.70;96.50
3816;DHT22;1923;48.154;11.536;2023-01-19T10:43:39;10.60;95.50
3816;DHT22;1923;48.154;11.536;2023-01-19T10:46:26;10.00;95.10
3816;DHT22;1923;48.154;11.536;2023-01-19T10:48:56;10.10;95.30
3816;DHT22;1923;48.154;11.536;2023-01-19T10:51:24;9.80;95.80
3816;DHT22;1923;48.154;11.536;2023-01-19T10:53:57;9.40;96.00
3816;DHT22;1923;48.154;11.536;2023-01-19T10:56:29;9.60;96.20
3816;DHT22;1923;48.154;11.536;2023-01-19T10:58:59;9.70;95.90
3816;DHT22;1923;48.154;11.536;2023-01-19T11:01:28;9.60;95.20
3816;DHT22;1923;48.154;11.536;2023-01-19T11:04:19;9.90;95.50
3816;DHT22;1923;48.154;11.536;2023-01-19T11:06:48;10.30;94.30
3816;DHT22;1923;48.154;11.536;2023-01-19T11:09:18;10.60;94.00
3816;DHT22;1923;48.154;11.536;2023-01-19T11:11:48;10.60;93.10
3816;DHT22;1923;48.154;11.536;2023-01-19T11:14:19;10.70;94.00
3816;DHT22;1923;48.154;11.536;2023-01-19T11:16:51;10.20;92.60
3816;DHT22;1923;48.154;11.536;2023-01-19T11:19:25;10.10;94.00
3816;DHT22;1923;48.154;11.536;2023-01-19T11:22:08;9.70;95.00
3816;DHT22;1923;48.154;11.536;2023-01-19T11:24:39;9.50;95.40
3816;DHT22;1923;48.154;11.536;2023-01-19T11:27:07;9.40;95.20
3816;DHT22;1923;48.154;11.536;2023-01-19T11:29:35;9.10;95.30
3816;DHT22;1923;48.154;11.536;2023-01-19T11:32:14;8.70;95.10
3816;DHT22;1923;48.154;11.536;2023-01-19T11:34:46;8.60;95.00
3816;DHT22;1923;48.154;11.536;2023-01-19T11:37:29;8.20;95.70
3816;DHT22;1923;48.154;11.536;2023-01-19T11:39:59;7.60;95.80
3816;DHT22;1923;48.154;11.536;2023-01-19T11:42:32;7.40;96.40
3816;DHT22;1923;48.154;11.536;2023-01-19T11:45:05;7.30;96.60
3816;DHT22;1923;48.154;11.536;2023-01-19T11:47:40;6.60;96.10
3816;DHT22;1923;48.154;11.536;2023-01-19T11:50:22;6.40;97.40
3816;DHT22;1923;48.154;11.536;2023-01-19T11:52:55;6.20;97.40
3816;DHT22;1923;48.154;11.536;2023-01-19T11:55:32;6.10;97.50
3816;DHT22;1923;48.154;11.536;2023-01-19T11:58:03;6.00;97.90
3816;DHT22;1923;48.154;11.536;2023-01-19T12:00:35;5.80;98.20
3816;DHT22;1923;48.154;11.536;2023-01-19T12:03:09;5.70;98.20
3816;DHT22;1923;48.154;11.536;2023-01-19T12:05:45;5.60;98.50
3816;DHT22;1923;48.154;11.536;2023-01-19T12:08:19;5.60;99.00
3816;DHT22;1923;48.154;11.536;2023-01-19T12:10:51;5.60;99.10
3816;DHT22;1923;48.154;11.536;2023-01-19T12:13:22;5.40;98.80
3816;DHT22;1923;48.154;11.536;2023-01-19T12:15:53;5.30;98.80
3816;DHT22;1923;48.154;11.536;2023-01-19T12:18:28;5.10;98.70
3816;DHT22;1923;48.154;11.536;2023-01-19T12:20:57;5.00;99.20
3816;DHT22;1923;48.154;11.536;2023-01-19T12:23:35;5.00;99.30
3816;DHT22;1923;48.154;11.536;2023-01-19T12:26:27;4.90;99.40
3816;DHT22;1923;48.154;11.536;2023-01-19T12:28:58;4.70;99.40
3816;DHT22;1923;48.154;11.536;2023-01-19T12:31:27;4.60;99.50
3816;DHT22;1923;48.154;11.536;2023-01-19T12:34:28;4.60;99.90
3816;DHT22;1923;48.154;11.536;2023-01-19T12:37:06;4.60;99.90
3816;DHT22;1923;48.154;11.536;2023-01-19T12:39:46;4.50;99.80
3816;DHT22;1923;48.154;11.536;2023-01-19T12:42:16;4.60;99.90
3816;DHT22;1923;48.154;11.536;2023-01-19T12:44:47;4.50;99.90
3816;DHT22;1923;48.154;11.536;2023-01-19T12:47:20;4.50;99.90
3816;DHT22;1923;48.154;11.536;2023-01-19T12:49:52;4.40;99.90
3816;DHT22;1923;48.154;11.536;2023-01-19T12:52:29;4.40;99.90
3816;DHT22;1923;48.154;11.536;2023-01-19T12:55:03;4.20;99.90
3816;DHT22;1923;48.154;11.536;2023-01-19T12:57:37;4.10;99.90
3816;DHT22;1923;48.154;11.536;2023-01-19T13:00:22;4.10;99.90
3816;DHT22;1923;48.154;11.536;2023-01-19T13:02:55;4.10;99.90
3816;DHT22;1923;48.154;11.536;2023-01-19T13:05:51;4.10;99.90
3816;DHT22;1923;48.154;11.536;2023-01-19T13:08:25;4.10;99.90
3816;DHT22;1923;48.154;11.536;2023-01-19T13:11:19;4.00;99.90
3816;DHT22;1923;48.154;11.536;2023-01-19T13:17:23;3.70;99.90
3816;DHT22;1923;48.154;11.536;2023-01-19T13:20:17;3.70;99.90
3816;DHT22;1923;48.154;11.536;2023-01-19T13:23:16;3.60;99.90
3816;DHT22;1923;48.154;11.536;2023-01-19T13:25:57;3.60;99.90
3816;DHT22;1923;48.154;11.536;2023-01-19T13:28:31;3.70;99.90
3816;DHT22;1923;48.154;11.536;2023-01-19T13:31:00;3.70;99.90
3816;DHT22;1923;48.154;11.536;2023-01-19T13:33:37;3.60;99.90
3816;DHT22;1923;48.154;11.536;2023-01-19T13:36:18;3.70;99.90
3816;DHT22;1923;48.154;11.536;2023-01-19T13:38:49;3.80;99.90
3816;DHT22;1923;48.154;11.536;2023-01-19T13:41:20;3.90;99.90
3816;DHT22;1923;48.154;11.536;2023-01-19T13:43:56;3.80;99.90
3816;DHT22;1923;48.154;11.536;2023-01-19T13:46:26;3.70;99.90
3816;DHT22;1923;48.154;11.536;2023-01-19T13:48:57;3.80;99.90
3816;DHT22;1923;48.154;11.536;2023-01-19T13:51:26;3.80;99.90
3816;DHT22;1923;48.154;11.536;2023-01-19T13:53:57;3.80;99.90
3816;DHT22;1923;48.154;11.536;2023-01-19T13:56:26;3.80;99.90
3816;DHT22;1923;48.154;11.536;2023-01-19T13:59:03;3.90;99.90
3816;DHT22;1923;48.154;11.536;2023-01-19T14:01:40;3.90;99.90
3816;DHT22;1923;48.154;11.536;2023-01-19T14:04:27;3.90;99.90
3816;DHT22;1923;48.154;11.536;2023-01-19T14:06:58;3.80;99.90
3816;DHT22;1923;48.154;11.536;2023-01-19T14:09:28;3.90;99.90
3816;DHT22;1923;48.154;11.536;2023-01-19T14:12:10;4.00;99.90
3816;DHT22;1923;48.154;11.536;2023-01-19T14:14:39;4.10;99.90
3816;DHT22;1923;48.154;11.536;2023-01-19T14:17:25;4.20;99.90
3816;DHT22;1923;48.154;11.536;2023-01-19T14:19:54;4.30;99.90
3816;DHT22;1923;48.154;11.536;2023-01-19T14:22:37;4.20;99.90
3816;DHT22;1923;48.154;11.536;2023-01-19T14:25:28;4.20;99.90
3816;DHT22;1923;48.154;11.536;2023-01-19T14:28:27;4.10;99.90
3816;DHT22;1923;48.154;11.536;2023-01-19T14:30:57;4.00;99.90
3816;DHT22;1923;48.154;11.536;2023-01-19T14:33:40;3.90;99.90
3816;DHT22;1923;48.154;11.536;2023-01-19T14:36:25;3.90;99.90
3816;DHT22;1923;48.154;11.536;2023-01-19T14:38:55;3.80;99.70
3816;DHT22;1923;48.154;11.536;2023-01-19T14:41:28;3.70;99.90
3816;DHT22;1923;48.154;11.536;2023-01-19T14:43:58;3.70;99.90
3816;DHT22;1923;48.154;11.536;2023-01-19T14:46:27;3.70;99.90
3816;DHT22;1923;48.154;11.536;2023-01-19T14:49:04;3.70;99.90
3816;DHT22;1923;48.154;11.536;2023-01-19T14:51:32;3.70;99.90
3816;DHT22;1923;48.154;11.536;2023-01-19T14:54:01;3.70;99.90
3816;DHT22;1923;48.154;11.536;2023-01-19T14:56:32;3.70;99.90
3816;DHT22;1923;48.154;11.536;2023-01-19T14:59:04;3.70;99.90
3816;DHT22;1923;48.154;11.536;2023-01-19T15:01:35;3.70;99.90
3816;DHT22;1923;48.154;11.536;2023-01-19T15:04:04;3.70;99.90
3816;DHT22;1923;48.154;11.536;2023-01-19T15:06:32;3.70;99.90
3816;DHT22;1923;48.154;11.536;2023-01-19T15:09:02;3.70;99.90
3816;DHT22;1923;48.154;11.536;2023-01-19T15:11:33;3.60;99.90
3816;DHT22;1923;48.154;11.536;2023-01-19T15:14:02;3.60;99.90
3816;DHT22;1923;48.154;11.536;2023-01-19T15:16:32;3.70;99.90
3816;DHT22;1923;48.154;11.536;2023-01-19T15:19:00;3.60;99.90
3816;DHT22;1923;48.154;11.536;2023-01-19T15:21:28;3.50;99.90
3816;DHT22;1923;48.154;11.536;2023-01-19T15:23:56;3.50;99.90
3816;DHT22;1923;48.154;11.536;2023-01-19T15:26:25;3.40;99.90
3816;DHT22;1923;48.154;11.536;2023-01-19T15:28:55;3.50;99.90
3816;DHT22;1923;48.154;11.536;2023-01-19T15:31:24;3.40;99.90
3816;DHT22;1923;48.154;11.536;2023-01-19T15:33:53;3.50;99.90
3816;DHT22;1923;48.154;11.536;2023-01-19T15:36:21;3.60;99.90
3816;DHT22;1923;48.154;11.536;2023-01-19T15:38:50;3.40;99.90
3816;DHT22;1923;48.154;11.536;2023-01-19T15:41:22;3.30;99.90
3816;DHT22;1923;48.154;11.536;2023-01-19T15:43:50;3.20;99.90
3816;DHT22;1923;48.154;11.536;2023-01-19T15:46:21;3.20;99.90
3816;DHT22;1923;48.154;11.536;2023-01-19T15:48:49;3.00;99.90
3816;DHT22;1923;48.154;11.536;2023-01-19T15:51:20;3.10;99.90
3816;DHT22;1923;48.154;11.536;2023-01-19T15:53:51;3.00;99.90
3816;DHT22;1923;48.154;11.536;2023-01-19T15:56:22;2.90;99.90
3816;DHT22;1923;48.154;11.536;2023-01-19T15:58:51;3.00;99.90
3816;DHT22;1923;48.154;11.536;2023-01-19T16:01:23;3.00;99.90
3816;DHT22;1923;48.154;11.536;2023-01-19T16:03:57;3.00;99.90
3816;DHT22;1923;48.154;11.536;2023-01-19T16:06:26;3.00;99.90
3816;DHT22;1923;48.154;11.536;2023-01-19T16:08:55;3.00;99.90
3816;DHT22;1923;48.154;11.536;2023-01-19T16:11:27;2.90;99.90
3816;DHT22;1923;48.154;11.536;2023-01-19T16:13:55;2.80;99.90
3816;DHT22;1923;48.154;11.536;2023-01-19T16:16:25;2.90;99.90
3816;DHT22;1923;48.154;11.536;2023-01-19T16:18:54;2.80;99.90
3816;DHT22;1923;48.154;11.536;2023-01-19T16:21:23;2.70;99.90
3816;DHT22;1923;48.154;11.536;2023-01-19T16:23:51;2.70;99.90
3816;DHT22;1923;48.154;11.536;2023-01-19T16:26:27;2.70;99.90
3816;DHT22;1923;48.154;11.536;2023-01-19T16:28:57;2.80;99.90
3816;DHT22;1923;48.154;11.536;2023-01-19T16:31:26;2.80;99.90
3816;DHT22;1923;48.154;11.536;2023-01-19T16:33:55;2.70;99.90
3816;DHT22;1923;48.154;11.536;2023-01-19T16:36:26;2.60;99.90
3816;DHT22;1923;48.154;11.536;2023-01-19T16:38:57;2.70;99.90
3816;DHT22;1923;48.154;11.536;2023-01-19T16:41:25;2.60;99.90
3816;DHT22;1923;48.154;11.536;2023-01-19T16:43:55;2.60;99.90
3816;DHT22;1923;48.154;11.536;2023-01-19T16:46:26;2.70;99.90
3816;DHT22;1923;48.154;11.536;2023-01-19T16:48:58;2.50;99.90
3816;DHT22;1923;48.154;11.536;2023-01-19T16:51:26;2.50;99.90
3816;DHT22;1923;48.154;11.536;2023-01-19T16:53:56;2.60;99.90
3816;DHT22;1923;48.154;11.536;2023-01-19T16:56:24;2.50;99.90
3816;DHT22;1923;48.154;11.536;2023-01-19T16:58:52;2.50;99.90
3816;DHT22;1923;48.154;11.536;2023-01-19T17:01:21;2.50;99.90
3816;DHT22;1923;48.154;11.536;2023-01-19T17:03:51;2.50;99.90
3816;DHT22;1923;48.154;11.536;2023-01-19T17:06:20;2.40;99.90
3816;DHT22;1923;48.154;11.536;2023-01-19T17:08:49;2.40;99.90
3816;DHT22;1923;48.154;11.536;2023-01-19T17:11:20;2.30;99.90
3816;DHT22;1923;48.154;11.536;2023-01-19T17:13:51;2.30;99.90
3816;DHT22;1923;48.154;11.536;2023-01-19T17:16:19;2.40;99.90
3816;DHT22;1923;48.154;11.536;2023-01-19T17:18:48;2.40;99.90
3816;DHT22;1923;48.154;11.536;2023-01-19T17:21:18;2.30;99.90
3816;DHT22;1923;48.154;11.536;2023-01-19T17:23:48;2.30;99.90
3816;DHT22;1923;48.154;11.536;2023-01-19T17:26:16;2.40;99.90
3816;DHT22;1923;48.154;11.536;2023-01-19T17:28:45;2.40;99.90
3816;DHT22;1923;48.154;11.536;2023-01-19T17:31:15;2.40;99.90
3816;DHT22;1923;48.154;11.536;2023-01-19T17:33:44;2.50;99.90
3816;DHT22;1923;48.154;11.536;2023-01-19T17:36:14;2.50;99.90
3816;DHT22;1923;48.154;11.536;2023-01-19T17:38:44;2.50;99.90
3816;DHT22;1923;48.154;11.536;2023-01-19T17:41:13;2.40;99.90
3816;DHT22;1923;48.154;11.536;2023-01-19T17:43:41;2.20;99.90
3816;DHT22;1923;48.154;11.536;2023-01-19T17:46:10;2.10;99.90
3816;DHT22;1923;48.154;11.536;2023-01-19T17:48:38;2.20;99.90
3816;DHT22;1923;48.154;11.536;2023-01-19T17:51:08;2.20;99.90
3816;DHT22;1923;48.154;11.536;2023-01-19T17:53:38;2.20;99.90
3816;DHT22;1923;48.154;11.536;2023-01-19T17:56:10;2.10;99.90
3816;DHT22;1923;48.154;11.536;2023-01-19T17:58:39;2.10;99.90
3816;DHT22;1923;48.154;11.536;2023-01-19T18:01:08;2.10;99.90
3816;DHT22;1923;48.154;11.536;2023-01-19T18:03:37;2.10;99.90
3816;DHT22;1923;48.154;11.536;2023-01-19T18:06:06;2.20;99.90
3816;DHT22;1923;48.154;11.536;2023-01-19T18:08:36;2.20;99.90
3816;DHT22;1923;48.154;11.536;2023-01-19T18:11:05;2.20;99.90
3816;DHT22;1923;48.154;11.536;2023-01-19T18:13:35;2.20;99.90
3816;DHT22;1923;48.154;11.536;2023-01-19T18:16:05;2.20;99.90
3816;DHT22;1923;48.154;11.536;2023-01-19T18:18:33;2.20;99.90
3816;DHT22;1923;48.154;11.536;2023-01-19T18:21:04;2.30;99.90
3816;DHT22;1923;48.154;11.536;2023-01-19T18:23:33;2.20;99.90
3816;DHT22;1923;48.154;11.536;2023-01-19T18:26:03;2.20;99.90
3816;DHT22;1923;48.154;11.536;2023-01-19T18:28:32;2.10;99.90
3816;DHT22;1923;48.154;11.536;2023-01-19T18:31:03;2.20;99.90
3816;DHT22;1923;48.154;11.536;2023-01-19T18:33:33;2.20;99.90
3816;DHT22;1923;48.154;11.536;2023-01-19T18:36:01;2.10;99.90
3816;DHT22;1923;48.154;11.536;2023-01-19T18:38:30;2.00;99.90
3816;DHT22;1923;48.154;11.536;2023-01-19T18:41:02;2.00;99.90
3816;DHT22;1923;48.154;11.536;2023-01-19T18:43:30;2.10;99.90
3816;DHT22;1923;48.154;11.536;2023-01-19T18:45:58;2.20;99.90
3816;DHT22;1923;48.154;11.536;2023-01-19T18:48:28;2.30;99.90
3816;DHT22;1923;48.154;11.536;2023-01-19T18:50:56;2.40;99.90
3816;DHT22;1923;48.154;11.536;2023-01-19T18:53:30;2.30;99.90
3816;DHT22;1923;48.154;11.536;2023-01-19T18:55:59;2.30;99.90
3816;DHT22;1923;48.154;11.536;2023-01-19T18:58:28;2.30;99.90
3816;DHT22;1923;48.154;11.536;2023-01-19T19:00:57;2.30;99.90
3816;DHT22;1923;48.154;11.536;2023-01-19T19:03:27;2.30;99.90
3816;DHT22;1923;48.154;11.536;2023-01-19T19:05:55;2.30;99.90
3816;DHT22;1923;48.154;11.536;2023-01-19T19:08:23;2.20;99.90
3816;DHT22;1923;48.154;11.536;2023-01-19T19:10:51;2.20;99.90
3816;DHT22;1923;48.154;11.536;2023-01-19T19:13:20;2.20;99.90
3816;DHT22;1923;48.154;11.536;2023-01-19T19:15:48;2.20;99.90
3816;DHT22;1923;48.154;11.536;2023-01-19T19:18:18;2.20;99.90
3816;DHT22;1923;48.154;11.536;2023-01-19T19:20:47;2.20;99.90
3816;DHT22;1923;48.154;11.536;2023-01-19T19:23:16;2.30;99.90
3816;DHT22;1923;48.154;11.536;2023-01-19T19:25:44;2.30;99.90
3816;DHT22;1923;48.154;11.536;2023-01-19T19:28:12;2.30;99.90
3816;DHT22;1923;48.154;11.536;2023-01-19T19:30:40;2.30;99.90
3816;DHT22;1923;48.154;11.536;2023-01-19T19:33:08;2.20;99.90
3816;DHT22;1923;48.154;11.536;2023-01-19T19:35:36;2.20;99.90
3816;DHT22;1923;48.154;11.536;2023-01-19T19:38:05;2.20;99.90
3816;DHT22;1923;48.154;11.536;2023-01-19T19:40:33;2.10;99.90
3816;DHT22;1923;48.154;11.536;2023-01-19T19:43:01;2.10;99.90
3816;DHT22;1923;48.154;11.536;2023-01-19T19:45:29;2.20;99.90
3816;DHT22;1923;48.154;11.536;2023-01-19T19:47:57;2.10;99.90
3816;DHT22;1923;48.154;11.536;2023-01-19T19:50:25;2.10;99.90
3816;DHT22;1923;48.154;11.536;2023-01-19T19:52:53;2.10;99.90
3816;DHT22;1923;48.154;11.536;2023-01-19T19:55:25;2.20;99.90
3816;DHT22;1923;48.154;11.536;2023-01-19T19:57:53;2.20;99.90
3816;DHT22;1923;48.154;11.536;2023-01-19T20:00:22;2.10;99.90
3816;DHT22;1923;48.154;11.536;2023-01-19T20:02:50;2.20;99.90
3816;DHT22;1923;48.154;11.536;2023-01-19T20:05:18;2.30;99.90
3816;DHT22;1923;48.154;11.536;2023-01-19T20:07:46;2.20;99.90
3816;DHT22;1923;48.154;11.536;2023-01-19T20:10:15;2.10;99.90
3816;DHT22;1923;48.154;11.536;2023-01-19T20:12:45;2.10;99.90
3816;DHT22;1923;48.154;11.536;2023-01-19T20:15:13;2.10;99.90
3816;DHT22;1923;48.154;11.536;2023-01-19T20:17:41;2.20;99.90
3816;DHT22;1923;48.154;11.536;2023-01-19T20:20:12;2.10;99.90
3816;DHT22;1923;48.154;11.536;2023-01-19T20:22:40;2.20;99.90
3816;DHT22;1923;48.154;11.536;2023-01-19T20:25:09;2.10;99.90
3816;DHT22;1923;48.154;11.536;2023-01-19T20:27:37;2.10;99.90
3816;DHT22;1923;48.154;11.536;2023-01-19T20:30:08;2.10;99.90
3816;DHT22;1923;48.154;11.536;2023-01-19T20:32:38;2.10;99.90
3816;DHT22;1923;48.154;11.536;2023-01-19T20:35:06;2.00;99.90
3816;DHT22;1923;48.154;11.536;2023-01-19T20:37:34;2.20;99.90
3816;DHT22;1923;48.154;11.536;2023-01-19T20:40:03;2.10;99.90
3816;DHT22;1923;48.154;11.536;2023-01-19T20:42:31;2.00;99.90
3816;DHT22;1923;48.154;11.536;2023-01-19T20:44:59;2.00;99.90
3816;DHT22;1923;48.154;11.536;2023-01-19T20:47:29;2.00;99.90